Strona główna
METAR-TAF:

METAR-TAF

Lotnisko :

Indiana County Airport (Jimmy Stewart Field)

Indiana, Pensylwania, Stany Zjednoczone

Szerokość geograficzna: 40-38N, Długość geograficzna: 079-06W, wysokość: 429 m

Aktualna obserwacja pogody

Raport powstał 15 minut temu, godzina 17:15 UTC
Wiatr 10 kt od południowy zachód
Temperatura 28°C
Wilgotność 66%
Ciśnienie 1012 hPa
Widzialność: 16.1 km
Mało chmury na wysokości 3300 ft

METAR: KIDI 241715Z AUTO 23010KT 10SM FEW033 28/21 A2989 RMK A01

czas: 13:30 (17:30 UTC)


TAF: brakujący

Obserwacja i prognoza pogody dla ponad 4000 lotnisk (raport METAR i TAF).

Dostępne stacje oznaczono żółtymi i czerwonymi punktami na mapie.

Najedź kursorem aby zobaczyć nazwę stacji.

Kliknij aby zobaczyć obserwacje i prognozy pogody.

Aby zmienić mapę: kliknij na zielony przycisk z czarnym krzyżykiem, aby powiększyć; na zielony przycisk z myślnikiem, aby pomniejszyć; na zielone strzałki, aby przejść do map sąsiednich.


METAR-TAF: